createdAt,value
2023-02-12T00:03:58.379Z,3.87
2023-02-12T00:09:20.971Z,3.90
2023-02-12T00:14:45.833Z,4.10
2023-02-12T00:20:08.054Z,3.23
2023-02-12T00:25:30.376Z,3.25
2023-02-12T00:30:52.722Z,3.33
2023-02-12T00:36:19.124Z,3.30
2023-02-12T00:41:41.889Z,3.20
2023-02-12T00:47:04.087Z,3.00
2023-02-12T00:52:26.351Z,2.80
2023-02-12T00:57:48.572Z,3.07
2023-02-12T01:03:10.918Z,2.90
2023-02-12T01:08:34.872Z,3.07
2023-02-12T01:13:57.197Z,3.17
2023-02-12T01:19:19.569Z,2.90
2023-02-12T01:24:41.766Z,2.80
2023-02-12T01:30:04.070Z,3.33
2023-02-12T01:35:27.224Z,2.90
2023-02-12T01:40:49.965Z,3.00
2023-02-12T01:46:12.772Z,3.60
2023-02-12T01:51:37.814Z,3.23
2023-02-12T01:57:02.031Z,3.10
2023-02-12T02:02:24.855Z,3.40
2023-02-12T02:07:48.716Z,3.60
2023-02-12T02:13:29.258Z,3.30
2023-02-12T02:19:08.034Z,2.97
2023-02-12T02:25:07.216Z,2.90
2023-02-12T02:30:37.434Z,2.53
2023-02-12T02:36:20.922Z,2.35
2023-02-12T02:42:12.373Z,3.05
2023-02-12T02:47:42.622Z,2.70
2023-02-12T02:53:12.231Z,2.52
2023-02-12T03:04:02.372Z,3.25
2023-02-12T03:10:05.050Z,2.77
2023-02-12T03:15:41.149Z,3.05
2023-02-12T03:21:10.943Z,2.80
2023-02-12T03:26:38.103Z,3.17
2023-02-12T03:32:22.909Z,2.60
2023-02-12T03:37:52.984Z,3.27
2023-02-12T03:43:40.291Z,2.90
2023-02-12T03:49:16.228Z,2.40
2023-02-12T03:54:40.237Z,4.20
2023-02-12T04:00:05.345Z,3.03
2023-02-12T04:05:41.734Z,3.07
2023-02-12T04:11:29.415Z,3.00
2023-02-12T04:17:07.572Z,2.90
2023-02-12T04:23:09.302Z,2.90
2023-02-12T04:28:56.543Z,2.80
2023-02-12T04:34:41.957Z,2.97
2023-02-12T04:40:06.506Z,2.73
2023-02-12T04:45:38.264Z,3.13
2023-02-12T04:51:01.868Z,3.50
2023-02-12T04:56:24.882Z,4.87
2023-02-12T05:01:48.224Z,4.57
2023-02-12T05:07:10.800Z,4.43
2023-02-12T05:12:32.998Z,4.63
2023-02-12T05:17:55.292Z,5.17
2023-02-12T05:23:17.544Z,6.93
2023-02-12T05:28:40.731Z,6.37
2023-02-12T05:34:03.347Z,6.77
2023-02-12T05:39:26.131Z,5.10
2023-02-12T05:44:48.400Z,4.63
2023-02-12T05:50:11.113Z,3.33
2023-02-12T05:55:34.371Z,3.43
2023-02-12T06:00:56.573Z,3.17
2023-02-12T06:06:18.852Z,3.30
2023-02-12T06:11:41.759Z,4.30
2023-02-12T06:17:06.686Z,3.70
2023-02-12T06:22:29.033Z,4.00
2023-02-12T06:27:51.290Z,4.53
2023-02-12T06:33:13.577Z,8.03
2023-02-12T06:38:35.827Z,10.30
2023-02-12T06:43:58.218Z,6.67
2023-02-12T06:49:20.641Z,8.20
2023-02-12T06:54:42.849Z,14.93
2023-02-12T07:00:05.088Z,9.87
2023-02-12T07:05:28.018Z,9.20
2023-02-12T07:10:50.959Z,9.95
2023-02-12T07:16:21.572Z,8.93
2023-02-12T07:21:43.952Z,12.00
2023-02-12T07:27:06.330Z,13.23
2023-02-12T07:32:28.662Z,14.03
2023-02-12T07:37:52.431Z,15.07
2023-02-12T07:43:15.121Z,14.73
2023-02-12T07:48:37.555Z,14.27
2023-02-12T07:54:04.053Z,14.93
2023-02-12T07:59:29.777Z,14.68
2023-02-12T08:04:51.997Z,15.20
2023-02-12T08:10:15.337Z,14.47
2023-02-12T08:15:38.098Z,13.93
2023-02-12T08:21:00.764Z,10.07
2023-02-12T08:26:34.140Z,10.70
2023-02-12T08:32:00.803Z,10.23
2023-02-12T08:37:24.268Z,11.10
2023-02-12T08:42:46.674Z,11.80
2023-02-12T08:48:08.999Z,12.03
2023-02-12T08:53:32.279Z,11.90
2023-02-12T08:58:55.508Z,12.13
2023-02-12T09:04:22.100Z,12.13
2023-02-12T09:09:44.483Z,10.65
2023-02-12T09:15:06.799Z,8.13
2023-02-12T09:20:29.345Z,4.97
2023-02-12T09:25:53.560Z,5.20
2023-02-12T09:31:23.337Z,4.53
2023-02-12T09:36:47.074Z,4.43
2023-02-12T09:42:32.625Z,4.78
2023-02-12T09:48:14.437Z,4.97
2023-02-12T09:53:46.907Z,4.93
2023-02-12T09:59:14.853Z,5.13
2023-02-12T10:04:42.201Z,5.23
2023-02-12T10:10:41.698Z,5.60
2023-02-12T10:16:38.641Z,4.70
2023-02-12T10:22:20.912Z,5.60
2023-02-12T10:27:56.494Z,6.13
2023-02-12T10:33:26.857Z,6.62
2023-02-12T10:38:54.808Z,7.22
2023-02-12T10:44:17.924Z,7.20
2023-02-12T10:49:42.207Z,7.17
2023-02-12T10:55:07.479Z,9.17
2023-02-12T11:00:37.630Z,8.30
2023-02-12T11:06:01.804Z,8.88
2023-02-12T11:11:40.179Z,9.43
2023-02-12T11:17:09.846Z,8.83
2023-02-12T11:22:33.647Z,8.58
2023-02-12T11:28:13.012Z,9.03
2023-02-12T11:33:43.025Z,9.13
2023-02-12T11:39:15.278Z,9.03
2023-02-12T11:45:00.545Z,10.10
2023-02-12T11:50:33.812Z,10.23
2023-02-12T11:56:04.310Z,9.83
2023-02-12T12:01:34.265Z,10.50
2023-02-12T12:07:13.525Z,10.90
2023-02-12T12:12:59.500Z,11.13
2023-02-12T12:19:10.918Z,12.78
2023-02-12T12:25:09.620Z,13.62
2023-02-12T12:31:03.251Z,12.25
2023-02-12T12:36:59.426Z,11.93
2023-02-12T12:42:50.392Z,11.90
2023-02-12T12:48:26.791Z,12.97
2023-02-12T12:54:18.416Z,12.80
2023-02-12T13:00:13.327Z,12.98
2023-02-12T13:05:58.577Z,13.48
2023-02-12T13:11:54.274Z,12.47
2023-02-12T13:17:30.341Z,13.75
2023-02-12T13:23:06.114Z,13.68
2023-02-12T13:28:44.804Z,13.55
2023-02-12T13:34:27.776Z,15.10
2023-02-12T13:40:11.059Z,14.73
2023-02-12T13:45:59.838Z,14.77
2023-02-12T13:51:54.358Z,15.03
2023-02-12T13:57:23.634Z,13.43
2023-02-12T14:02:55.127Z,13.60
2023-02-12T14:08:20.602Z,15.27
2023-02-12T14:13:47.271Z,13.47
2023-02-12T14:19:47.488Z,15.23
2023-02-12T14:25:29.769Z,13.50
2023-02-12T14:31:29.499Z,13.97
2023-02-12T14:36:55.512Z,12.70
2023-02-12T14:42:40.877Z,12.80
2023-02-12T14:48:04.691Z,12.20
2023-02-12T14:53:39.878Z,13.50
2023-02-12T14:59:05.834Z,12.97
2023-02-12T15:04:32.998Z,13.23
2023-02-12T15:10:11.002Z,13.27
2023-02-12T15:15:52.546Z,14.77
2023-02-12T15:21:33.912Z,16.50
2023-02-12T15:27:06.419Z,16.15
2023-02-12T15:32:40.725Z,16.48
2023-02-12T15:38:06.802Z,17.02
2023-02-12T15:43:38.030Z,15.15
2023-02-12T15:49:12.745Z,13.37
2023-02-12T15:54:37.116Z,16.67
2023-02-12T16:00:08.847Z,16.43
2023-02-12T16:05:35.331Z,14.80
2023-02-12T16:11:01.542Z,14.93
2023-02-12T16:16:31.959Z,15.23
2023-02-12T16:22:14.689Z,15.97
2023-02-12T16:27:46.413Z,14.40
2023-02-12T16:33:11.256Z,14.67
2023-02-12T16:39:12.665Z,14.20
2023-02-12T16:44:41.167Z,18.10
2023-02-12T16:50:07.811Z,16.65
2023-02-12T16:55:36.566Z,16.80
2023-02-12T17:00:59.712Z,15.30
2023-02-12T17:06:23.669Z,13.78
2023-02-12T17:11:47.280Z,13.03
2023-02-12T17:17:10.251Z,12.70
2023-02-12T17:22:36.824Z,10.72
2023-02-12T17:27:59.436Z,10.82
2023-02-12T17:33:23.121Z,12.23
2023-02-12T17:38:45.619Z,12.25
2023-02-12T17:44:08.250Z,12.63
2023-02-12T17:49:30.888Z,12.75
2023-02-12T17:54:54.555Z,14.15
2023-02-12T18:00:19.276Z,12.30
2023-02-12T18:05:44.222Z,13.22
2023-02-12T18:11:08.361Z,13.83
2023-02-12T18:16:31.919Z,13.40
2023-02-12T18:21:54.252Z,13.68
2023-02-12T18:27:16.765Z,13.83
2023-02-12T18:32:39.457Z,14.35
2023-02-12T18:38:03.832Z,14.55
2023-02-12T18:43:26.215Z,15.75
2023-02-12T18:48:49.275Z,16.67
2023-02-12T18:54:18.415Z,17.48
2023-02-12T18:59:40.902Z,18.63
2023-02-12T19:05:03.387Z,17.07
2023-02-12T19:10:26.570Z,18.13
2023-02-12T19:15:52.420Z,18.97
2023-02-12T19:21:18.214Z,19.77
2023-02-12T19:26:42.497Z,17.95
2023-02-12T19:32:06.544Z,18.15
2023-02-12T19:37:29.163Z,18.20
2023-02-12T19:42:51.833Z,18.50
2023-02-12T19:48:14.052Z,16.50
2023-02-12T19:53:36.431Z,17.30
2023-02-12T19:58:59.241Z,18.33
2023-02-12T20:04:27.390Z,16.77
2023-02-12T20:09:49.811Z,16.15
2023-02-12T20:15:13.384Z,16.00
2023-02-12T20:20:35.714Z,15.45
2023-02-12T20:26:01.916Z,15.60
2023-02-12T20:31:32.059Z,13.98
2023-02-12T20:36:58.501Z,14.90
2023-02-12T20:42:21.424Z,13.67
2023-02-12T20:47:43.837Z,12.75
2023-02-12T20:53:06.438Z,13.60
2023-02-12T20:58:28.720Z,14.53
2023-02-12T21:03:52.242Z,14.83
2023-02-12T21:09:15.389Z,13.50
2023-02-12T21:14:38.796Z,12.83
2023-02-12T21:20:01.697Z,12.73
2023-02-12T21:25:24.270Z,14.00
2023-02-12T21:30:46.540Z,13.97
2023-02-12T21:36:10.045Z,13.63
2023-02-12T21:41:36.567Z,13.53
2023-02-12T21:47:00.394Z,14.33
2023-02-12T21:52:23.669Z,12.67
2023-02-12T21:57:47.681Z,13.87
2023-02-12T22:03:11.240Z,13.27
2023-02-12T22:08:33.526Z,13.23
2023-02-12T22:13:56.319Z,14.97
2023-02-12T22:19:19.993Z,14.43
2023-02-12T22:24:44.300Z,13.77
2023-02-12T22:30:06.660Z,13.23
2023-02-12T22:35:29.339Z,14.33
2023-02-12T22:40:51.643Z,13.70
2023-02-12T22:46:15.408Z,12.97
2023-02-12T22:51:44.898Z,12.93
2023-02-12T22:57:10.833Z,13.07
2023-02-12T23:02:33.220Z,11.37
2023-02-12T23:07:55.466Z,10.60
2023-02-12T23:13:29.048Z,11.00
2023-02-12T23:18:42.454Z,10.83
2023-02-12T23:24:05.272Z,11.00
2023-02-12T23:29:27.777Z,10.93
2023-02-12T23:34:50.079Z,10.93
2023-02-12T23:40:13.337Z,10.83
2023-02-12T23:45:36.222Z,10.90
2023-02-12T23:51:00.276Z,11.00
2023-02-12T23:56:23.001Z,11.57
